Time;durP1;ratioP1;P1;durP2;ratioP2;P2;SDS_P1;SDS_P2;PMS_P1;PMS_P2;Temp;Humidity;BMP_temperature;BMP_pressure;BME280_temperature;BME280_humidity;BME280_pressure;Samples;Min_cycle;Max_cycle;Signal;HPM_P1;HPM_P2
2021/12/01 00:01:41;;;;;;;5.27;4.90;;;-1.90;99.90;;;;;;5020446;28;20473;-80
2021/12/01 00:04:08;;;;;;;5.33;4.93;;;-2.20;99.90;;;;;;5019558;28;20284;-75
2021/12/01 00:06:35;;;;;;;4.70;4.30;;;-1.60;99.90;;;;;;5018021;28;20170;-75
2021/12/01 00:09:03;;;;;;;4.43;4.13;;;-2.40;99.90;;;;;;5017352;28;20180;-77
2021/12/01 00:11:29;;;;;;;4.73;3.33;;;-2.30;99.90;;;;;;5019250;28;20171;-73
2021/12/01 00:13:56;;;;;;;3.90;3.60;;;-2.10;99.90;;;;;;5018165;28;20178;-75
2021/12/01 00:16:21;;;;;;;3.97;3.67;;;-2.00;99.90;;;;;;5016529;28;20228;-75
2021/12/01 00:18:47;;;;;;;3.77;3.47;;;-2.20;99.90;;;;;;5018403;28;20249;-76
2021/12/01 00:21:13;;;;;;;3.43;3.23;;;-2.40;99.90;;;;;;5018062;28;20176;-81
2021/12/01 00:23:39;;;;;;;3.27;3.07;;;-2.30;99.90;;;;;;5019008;28;20181;-81
2021/12/01 00:26:06;;;;;;;3.00;2.80;;;-2.20;99.90;;;;;;5020170;28;20181;-80
2021/12/01 00:28:33;;;;;;;3.10;2.90;;;-2.40;99.90;;;;;;5019339;28;20182;-80
2021/12/01 00:31:00;;;;;;;3.13;2.93;;;-3.00;99.90;;;;;;5019264;28;20178;-81
2021/12/01 00:33:26;;;;;;;2.53;2.43;;;-3.60;99.90;;;;;;5018385;28;20201;-75
2021/12/01 00:35:53;;;;;;;2.73;2.53;;;-2.30;99.90;;;;;;5017839;28;20192;-75
2021/12/01 00:38:20;;;;;;;2.43;2.33;;;-2.60;99.90;;;;;;5018134;28;20181;-74
2021/12/01 00:40:46;;;;;;;2.70;2.50;;;-1.90;99.90;;;;;;5019275;28;20170;-82
2021/12/01 00:43:18;;;;;;;2.80;2.60;;;-2.20;99.90;;;;;;5020143;28;20174;-80
2021/12/01 00:45:57;;;;;;;2.20;2.00;;;-2.00;99.90;;;;;;5019740;28;20264;-81
2021/12/01 00:48:25;;;;;;;2.13;2.03;;;-2.40;99.90;;;;;;5018831;28;20201;-81
2021/12/01 00:50:52;;;;;;;1.83;1.73;;;-2.70;99.90;;;;;;5020503;28;20169;-82
2021/12/01 00:53:18;;;;;;;2.23;2.10;;;-1.30;99.90;;;;;;5019450;28;20198;-83
2021/12/01 00:55:45;;;;;;;3.37;2.60;;;-3.00;99.90;;;;;;5020274;28;20228;-81
2021/12/01 00:58:14;;;;;;;3.07;2.87;;;-2.50;99.90;;;;;;5020217;28;20529;-81
2021/12/01 01:00:41;;;;;;;3.50;3.30;;;-0.80;99.90;;;;;;5020248;28;20257;-80
2021/12/01 01:03:08;;;;;;;4.80;4.50;;;-2.30;99.90;;;;;;5020386;28;20201;-84
2021/12/01 01:05:35;;;;;;;8.87;5.83;;;-1.90;99.90;;;;;;5020310;28;20196;-83
2021/12/01 01:08:01;;;;;;;7.13;6.50;;;-2.10;99.90;;;;;;5020247;28;20171;-82
2021/12/01 01:18:24;;;;;;;6.87;6.33;;;-3.20;99.90;;;;;;5019341;28;20172;-78
2021/12/01 01:20:50;;;;;;;6.23;5.60;;;-3.10;99.90;;;;;;5019904;28;20169;-84
2021/12/01 01:23:16;;;;;;;6.93;6.33;;;-3.60;99.90;;;;;;5019384;28;20554;-82
2021/12/01 01:25:42;;;;;;;7.40;6.80;;;-1.80;99.90;;;;;;5019350;28;20549;-81
2021/12/01 01:28:08;;;;;;;7.33;6.63;;;-2.60;99.90;;;;;;5019055;28;20178;-81
2021/12/01 01:30:33;;;;;;;6.90;6.30;;;-2.60;99.90;;;;;;5019037;28;20434;-80
2021/12/01 01:33:00;;;;;;;6.80;6.10;;;-2.60;99.90;;;;;;5017076;28;20201;-80
2021/12/01 01:35:26;;;;;;;7.30;6.57;;;-2.00;99.90;;;;;;5018262;28;20280;-82
2021/12/01 01:37:53;;;;;;;9.57;8.10;;;-4.00;99.90;;;;;;5018661;28;20177;-79
2021/12/01 01:40:19;;;;;;;7.37;6.87;;;-3.20;99.90;;;;;;5019303;28;20177;-81
2021/12/01 01:42:46;;;;;;;7.60;7.03;;;-3.60;99.90;;;;;;5018533;28;20261;-79
2021/12/01 01:45:15;;;;;;;8.70;8.00;;;-2.50;99.90;;;;;;5019532;28;20189;-83
2021/12/01 01:48:06;;;;;;;9.27;8.10;;;-4.20;99.90;;;;;;5018441;28;20169;-81
2021/12/01 01:50:37;;;;;;;7.70;6.67;;;-3.40;99.90;;;;;;5019498;28;20205;-81
2021/12/01 01:53:06;;;;;;;8.00;7.30;;;-2.90;99.90;;;;;;5018899;28;20212;-80
2021/12/01 01:55:33;;;;;;;12.03;7.17;;;-2.30;99.90;;;;;;5019160;28;20189;-83
2021/12/01 01:58:01;;;;;;;10.07;8.90;;;-4.30;99.90;;;;;;5018961;28;20173;-79
2021/12/01 02:00:27;;;;;;;9.10;8.30;;;-4.20;99.90;;;;;;5019375;28;20207;-83
2021/12/01 02:02:56;;;;;;;7.97;7.27;;;-3.10;99.90;;;;;;5018944;28;20234;-82
2021/12/01 02:05:22;;;;;;;12.70;7.77;;;-2.70;99.90;;;;;;5019464;28;20200;-81
2021/12/01 02:07:50;;;;;;;7.87;7.10;;;-4.60;99.90;;;;;;5018737;28;20173;-82
2021/12/01 02:10:16;;;;;;;8.40;7.67;;;-1.50;99.90;;;;;;5017435;28;20196;-82
2021/12/01 02:12:42;;;;;;;8.73;7.90;;;-3.60;99.90;;;;;;5018428;28;20204;-80
2021/12/01 02:15:09;;;;;;;7.23;6.60;;;-1.30;99.90;;;;;;5018902;28;20169;-82
2021/12/01 02:17:35;;;;;;;6.20;5.67;;;-3.70;99.90;;;;;;5018413;28;20174;-80
2021/12/01 02:20:02;;;;;;;5.43;5.00;;;-3.60;99.90;;;;;;5018867;28;20245;-82
2021/12/01 02:22:31;;;;;;;5.67;5.17;;;-3.20;99.90;;;;;;5018561;28;20169;-79
2021/12/01 02:24:56;;;;;;;6.27;5.77;;;-3.80;99.90;;;;;;5017258;28;20173;-77
2021/12/01 02:27:22;;;;;;;6.57;5.97;;;-3.60;99.90;;;;;;5015256;28;20234;-75
2021/12/01 02:29:48;;;;;;;8.23;7.27;;;-2.80;99.90;;;;;;5016668;28;20247;-78
2021/12/01 02:32:13;;;;;;;9.07;8.27;;;-3.00;99.90;;;;;;5017613;28;20196;-76
2021/12/01 02:34:41;;;;;;;12.63;9.77;;;-2.40;99.90;;;;;;5017439;28;20569;-75
2021/12/01 02:37:07;;;;;;;9.20;8.30;;;-2.20;99.90;;;;;;5016005;28;20504;-80
2021/12/01 02:39:35;;;;;;;10.67;9.67;;;-3.80;99.90;;;;;;5017100;28;20184;-78
2021/12/01 02:42:07;;;;;;;8.97;8.13;;;-3.30;99.90;;;;;;5017661;28;20178;-78
2021/12/01 02:44:34;;;;;;;8.67;7.93;;;-4.20;99.90;;;;;;5017118;28;20257;-79
2021/12/01 02:47:01;;;;;;;7.80;7.00;;;-2.50;99.90;;;;;;5020600;28;20201;-77
2021/12/01 02:49:28;;;;;;;6.20;5.60;;;-3.10;99.90;;;;;;5020873;28;20240;-79
2021/12/01 02:51:56;;;;;;;6.00;5.37;;;-3.40;99.90;;;;;;5021673;28;20189;-74
2021/12/01 02:54:23;;;;;;;6.67;6.03;;;-3.50;99.90;;;;;;5020427;28;20626;-79
2021/12/01 02:56:51;;;;;;;6.30;5.70;;;-1.20;99.90;;;;;;5021865;28;20165;-77
2021/12/01 02:59:18;;;;;;;7.37;6.47;;;-2.80;99.90;;;;;;5019836;28;20188;-78
2021/12/01 03:01:44;;;;;;;6.20;5.70;;;-3.60;99.90;;;;;;5020426;28;20268;-81
2021/12/01 03:04:11;;;;;;;5.83;5.40;;;-3.20;99.90;;;;;;5021647;28;20174;-80
2021/12/01 03:06:38;;;;;;;6.50;5.37;;;-3.20;99.90;;;;;;5020776;28;20558;-79
2021/12/01 03:09:06;;;;;;;6.17;5.67;;;-2.80;99.90;;;;;;5021093;28;20561;-79
2021/12/01 03:11:32;;;;;;;5.27;4.87;;;-1.40;99.90;;;;;;5020967;28;20169;-81
2021/12/01 03:14:00;;;;;;;5.30;4.83;;;-3.60;99.90;;;;;;5021537;28;20519;-78
2021/12/01 03:16:26;;;;;;;5.73;5.23;;;-3.30;99.90;;;;;;5021894;28;20169;-80
2021/12/01 03:18:52;;;;;;;5.47;5.07;;;-3.90;99.90;;;;;;5020574;28;20451;-80
2021/12/01 03:21:19;;;;;;;5.43;4.97;;;-2.60;99.90;;;;;;5020878;28;20180;-81
2021/12/01 03:23:45;;;;;;;4.93;4.50;;;-3.60;99.90;;;;;;5020835;28;20188;-82
2021/12/01 03:26:11;;;;;;;4.43;4.13;;;-3.90;99.90;;;;;;5022070;28;20174;-81
2021/12/01 03:28:38;;;;;;;5.27;4.87;;;-2.70;99.90;;;;;;5020967;28;20177;-81
2021/12/01 03:31:04;;;;;;;4.53;3.87;;;-1.70;99.90;;;;;;5021864;28;20257;-82
2021/12/01 03:33:31;;;;;;;4.63;4.23;;;-1.70;99.90;;;;;;5020434;28;20275;-81
2021/12/01 03:35:56;;;;;;;4.80;4.37;;;-3.30;99.90;;;;;;5021597;28;20193;-80
2021/12/01 03:38:28;;;;;;;4.40;4.00;;;-3.70;99.90;;;;;;5020152;28;20235;-81
2021/12/01 03:40:56;;;;;;;4.87;4.50;;;-3.80;99.90;;;;;;5021398;28;20169;-79
2021/12/01 03:43:22;;;;;;;5.63;5.13;;;-2.20;99.90;;;;;;5021610;28;20220;-81
2021/12/01 03:45:48;;;;;;;5.47;5.07;;;-3.10;99.90;;;;;;5020205;28;20181;-80
2021/12/01 03:48:14;;;;;;;4.93;4.53;;;-3.30;99.90;;;;;;5020633;28;20228;-79
2021/12/01 03:50:41;;;;;;;4.93;4.47;;;-3.20;99.90;;;;;;5018641;28;20216;-76
2021/12/01 03:53:08;;;;;;;3.70;3.43;;;-3.10;99.90;;;;;;5018626;28;20224;-78
2021/12/01 03:55:35;;;;;;;4.13;3.80;;;-2.90;99.90;;;;;;5018933;28;20193;-79
2021/12/01 03:58:05;;;;;;;3.63;3.33;;;-1.90;99.90;;;;;;5019847;28;20505;-81
2021/12/01 04:00:31;;;;;;;4.03;3.60;;;-3.40;99.90;;;;;;5020087;28;20180;-80
2021/12/01 04:02:57;;;;;;;3.33;3.13;;;-4.10;99.90;;;;;;5019261;28;20181;-81
2021/12/01 04:05:23;;;;;;;2.53;2.30;;;-3.40;99.90;;;;;;5019999;28;20180;-81
2021/12/01 04:07:49;;;;;;;5.60;2.23;;;-3.40;99.90;;;;;;5019200;28;20577;-80
2021/12/01 04:10:16;;;;;;;2.73;2.53;;;-2.80;99.90;;;;;;5019362;28;20198;-80
2021/12/01 04:12:43;;;;;;;2.83;2.30;;;-3.60;99.90;;;;;;5018605;28;20216;-80
2021/12/01 04:15:11;;;;;;;2.53;2.33;;;-1.90;99.90;;;;;;5019379;28;20557;-79
2021/12/01 04:17:39;;;;;;;3.90;2.43;;;-3.20;99.90;;;;;;5019106;28;20517;-81
2021/12/01 04:20:05;;;;;;;1.70;1.60;;;-2.20;99.90;;;;;;5019703;28;20178;-81
2021/12/01 04:22:31;;;;;;;1.70;1.60;;;-2.90;99.90;;;;;;5019714;28;20222;-78
2021/12/01 04:24:57;;;;;;;2.30;1.80;;;-3.40;99.90;;;;;;5019417;28;20180;-81
2021/12/01 04:27:23;;;;;;;2.53;2.33;;;-3.50;99.90;;;;;;5019902;28;20209;-82
2021/12/01 04:29:49;;;;;;;2.03;1.90;;;-3.00;99.90;;;;;;5020022;28;20197;-82
2021/12/01 04:32:15;;;;;;;1.60;1.50;;;-3.80;99.90;;;;;;5019077;28;20197;-80
2021/12/01 04:34:40;;;;;;;1.70;1.60;;;-1.90;99.90;;;;;;5019122;28;20181;-81
2021/12/01 04:37:07;;;;;;;1.53;1.43;;;-3.70;99.90;;;;;;5018810;28;20197;-82
2021/12/01 04:39:34;;;;;;;2.90;1.30;;;-3.40;99.90;;;;;;5019943;28;20181;-82
2021/12/01 04:42:04;;;;;;;2.13;2.03;;;-2.30;99.90;;;;;;5018996;28;20184;-82
2021/12/01 04:44:31;;;;;;;1.47;1.30;;;-3.00;99.90;;;;;;5018004;28;20494;-79
2021/12/01 04:47:00;;;;;;;3.80;1.73;;;-3.50;99.90;;;;;;5019398;28;20169;-80
2021/12/01 04:49:26;;;;;;;1.63;1.53;;;-2.60;99.90;;;;;;5019005;28;20589;-76
2021/12/01 04:51:55;;;;;;;4.67;1.60;;;-3.50;99.90;;;;;;5018013;28;20180;-76
2021/12/01 04:54:22;;;;;;;1.73;1.63;;;-3.50;99.90;;;;;;5016377;28;20478;-75
2021/12/01 04:56:51;;;;;;;1.67;1.57;;;-3.90;99.90;;;;;;5017316;28;20178;-74
2021/12/01 04:59:18;;;;;;;1.63;1.20;;;-3.80;99.90;;;;;;5017806;28;20165;-80
2021/12/01 05:01:44;;;;;;;1.10;1.10;;;-3.60;99.90;;;;;;5018685;28;20173;-82
2021/12/01 05:04:11;;;;;;;1.23;1.00;;;-3.80;99.90;;;;;;5018922;28;20175;-78
2021/12/01 05:06:38;;;;;;;0.90;0.80;;;-3.70;99.90;;;;;;5018207;28;20231;-80
2021/12/01 05:09:05;;;;;;;2.63;1.30;;;-3.50;99.90;;;;;;5017754;28;20177;-79
2021/12/01 05:11:31;;;;;;;3.97;1.33;;;-0.90;99.90;;;;;;5016916;28;20173;-78
2021/12/01 05:13:57;;;;;;;1.03;1.03;;;-3.30;99.90;;;;;;5018031;28;20200;-79
2021/12/01 05:16:23;;;;;;;1.20;1.20;;;-3.30;99.90;;;;;;5017803;28;20311;-79
2021/12/01 05:18:49;;;;;;;1.10;1.07;;;-2.70;99.90;;;;;;5018083;28;20490;-79
2021/12/01 05:21:16;;;;;;;1.33;1.23;;;-3.30;99.90;;;;;;5017816;28;20557;-78
2021/12/01 05:23:42;;;;;;;0.90;0.90;;;-3.70;99.90;;;;;;5018306;28;20722;-80
2021/12/01 05:26:10;;;;;;;2.33;0.83;;;-2.60;99.90;;;;;;5018043;28;20204;-81
2021/12/01 05:28:38;;;;;;;1.33;1.20;;;-3.90;99.90;;;;;;5018535;28;20181;-80
2021/12/01 05:31:04;;;;;;;1.23;1.20;;;-3.90;99.90;;;;;;5018596;28;20181;-80
2021/12/01 05:33:29;;;;;;;1.63;1.53;;;-3.00;99.90;;;;;;5018415;28;20279;-80
2021/12/01 05:35:55;;;;;;;1.27;1.17;;;-3.70;99.90;;;;;;5018304;28;20196;-80
2021/12/01 05:38:21;;;;;;;6.13;2.03;;;-4.20;99.90;;;;;;5018075;28;20178;-84
2021/12/01 05:40:50;;;;;;;1.73;1.63;;;-4.60;99.90;;;;;;5017704;28;20182;-82
2021/12/01 05:43:17;;;;;;;1.77;1.67;;;-3.70;99.90;;;;;;5017784;28;20475;-80
2021/12/01 05:45:43;;;;;;;1.93;1.83;;;-3.60;99.90;;;;;;5018745;28;20452;-80
2021/12/01 05:48:09;;;;;;;2.23;2.10;;;-2.50;99.90;;;;;;5017419;28;20264;-79
2021/12/01 05:50:35;;;;;;;2.17;2.07;;;-3.50;99.90;;;;;;5017110;28;20173;-83
2021/12/01 05:53:01;;;;;;;3.07;2.77;;;-2.40;99.90;;;;;;5018660;28;20605;-81
2021/12/01 05:55:27;;;;;;;2.40;2.20;;;-3.90;99.90;;;;;;5017546;28;20183;-80
2021/12/01 05:57:53;;;;;;;3.30;3.00;;;-3.10;99.90;;;;;;5018438;28;20172;-79
2021/12/01 06:00:20;;;;;;;3.73;3.07;;;-1.70;99.90;;;;;;5018649;28;20183;-82
2021/12/01 06:02:49;;;;;;;5.40;3.20;;;-2.20;99.90;;;;;;5017986;28;20176;-81
2021/12/01 06:05:15;;;;;;;2.70;2.50;;;-2.80;99.90;;;;;;5018315;28;20292;-79
2021/12/01 06:07:43;;;;;;;3.23;2.87;;;-2.70;99.90;;;;;;5018056;28;20611;-84
2021/12/01 06:10:09;;;;;;;4.20;3.60;;;-3.00;99.90;;;;;;5018023;28;20190;-82
2021/12/01 06:12:35;;;;;;;3.97;3.57;;;-2.90;99.90;;;;;;5017792;28;20510;-79
2021/12/01 06:15:02;;;;;;;4.07;3.77;;;-3.10;99.90;;;;;;5017785;28;20581;-77
2021/12/01 06:17:28;;;;;;;3.10;2.90;;;-2.90;99.90;;;;;;5016883;28;20168;-77
2021/12/01 06:19:53;;;;;;;4.23;3.83;;;-2.80;99.90;;;;;;5017146;28;20223;-74
2021/12/01 06:22:19;;;;;;;5.23;3.50;;;-3.20;99.90;;;;;;5018543;28;20542;-75
2021/12/01 06:24:48;;;;;;;7.53;5.63;;;-2.50;99.90;;;;;;5020052;28;20176;-74
2021/12/01 06:27:15;;;;;;;5.20;4.80;;;-1.60;99.90;;;;;;5020012;28;20259;-78
2021/12/01 06:29:41;;;;;;;8.60;4.73;;;-3.00;99.90;;;;;;5020189;28;20202;-77
2021/12/01 06:32:07;;;;;;;4.53;4.20;;;-3.20;99.90;;;;;;5019741;28;20611;-77
2021/12/01 06:34:33;;;;;;;6.30;4.00;;;-2.10;99.90;;;;;;5020477;28;20170;-76
2021/12/01 06:36:59;;;;;;;4.53;3.93;;;-1.80;99.90;;;;;;5018908;28;20197;-76
2021/12/01 06:39:25;;;;;;;7.47;5.10;;;-3.20;99.90;;;;;;5020451;28;20227;-73
2021/12/01 06:41:54;;;;;;;3.40;3.10;;;-3.00;99.90;;;;;;5020057;28;20173;-82
2021/12/01 06:44:20;;;;;;;4.40;3.90;;;-3.50;99.90;;;;;;5020681;28;20247;-72
2021/12/01 06:46:46;;;;;;;4.33;3.47;;;-3.70;99.90;;;;;;5019713;28;20178;-74
2021/12/01 06:49:12;;;;;;;3.00;2.73;;;-1.90;99.90;;;;;;5019984;28;20185;-76
2021/12/01 06:51:38;;;;;;;2.97;2.77;;;-1.40;99.90;;;;;;5018391;28;20172;-81
2021/12/01 06:54:03;;;;;;;2.33;2.00;;;-3.80;99.90;;;;;;5038820;28;20204;-79
2021/12/01 06:56:29;;;;;;;3.53;3.23;;;-2.50;99.90;;;;;;5026844;28;20242;-76
2021/12/01 06:58:55;;;;;;;3.43;3.13;;;-3.70;99.90;;;;;;5038112;28;20199;-73
2021/12/01 07:01:21;;;;;;;2.87;2.67;;;-3.30;99.90;;;;;;5038574;28;20848;-73
2021/12/01 07:03:47;;;;;;;5.43;3.27;;;-3.00;99.90;;;;;;5037380;28;20464;-74
2021/12/01 07:06:13;;;;;;;4.20;3.07;;;-2.30;99.90;;;;;;5019626;28;20180;-74
2021/12/01 07:08:39;;;;;;;3.10;2.80;;;-3.10;99.90;;;;;;5020012;28;20182;-74
2021/12/01 07:11:05;;;;;;;3.67;3.33;;;-3.40;99.90;;;;;;5020124;28;20494;-79
2021/12/01 07:13:33;;;;;;;4.17;3.67;;;-3.50;99.90;;;;;;5019717;28;20204;-76
2021/12/01 07:16:00;;;;;;;4.37;3.90;;;-3.40;99.90;;;;;;5019991;28;20264;-76
2021/12/01 07:18:26;;;;;;;4.37;3.77;;;-3.00;99.90;;;;;;5023481;28;20184;-84
2021/12/01 07:20:53;;;;;;;3.83;3.53;;;-3.10;99.90;;;;;;5037757;28;20183;-81
2021/12/01 07:23:19;;;;;;;3.47;2.80;;;-2.90;99.90;;;;;;5040233;28;20211;-77
2021/12/01 07:25:45;;;;;;;3.17;2.57;;;-3.10;99.90;;;;;;5039630;28;20460;-82
2021/12/01 07:28:10;;;;;;;3.43;2.63;;;-3.60;99.90;;;;;;5039092;28;20175;-77
2021/12/01 07:30:39;;;;;;;3.03;2.70;;;-3.00;99.90;;;;;;5039630;28;20169;-76
2021/12/01 07:33:05;;;;;;;5.50;3.20;;;-3.50;99.90;;;;;;5038255;28;20236;-73
2021/12/01 07:35:31;;;;;;;4.27;3.10;;;-3.30;99.90;;;;;;5039610;28;20247;-83
2021/12/01 07:37:57;;;;;;;2.73;2.53;;;-2.50;99.90;;;;;;5040053;28;20172;-79
2021/12/01 07:40:23;;;;;;;3.87;2.80;;;-3.00;99.90;;;;;;5039550;28;20279;-78
2021/12/01 07:43:24;;;;;;;5.83;2.77;;;-3.10;99.90;;;;;;5022865;28;20193;-71
2021/12/01 07:45:51;;;;;;;2.77;2.47;;;-2.90;99.90;;;;;;5032274;28;20208;-74
2021/12/01 07:48:17;;;;;;;3.77;2.53;;;-3.00;99.90;;;;;;5037225;28;20670;-76
2021/12/01 07:50:43;;;;;;;3.23;2.37;;;-3.10;99.90;;;;;;5037235;28;20623;-73
2021/12/01 07:53:10;;;;;;;2.90;2.10;;;-3.20;99.90;;;;;;5036308;28;20270;-74
2021/12/01 07:55:39;;;;;;;2.60;2.27;;;-2.40;99.90;;;;;;5037262;28;20244;-73
2021/12/01 07:58:05;;;;;;;1.53;1.40;;;-2.60;99.90;;;;;;5031211;28;20173;-75
2021/12/01 08:00:40;;;;;;;1.90;1.80;;;-2.80;99.90;;;;;;5025288;28;20174;-75
2021/12/01 08:03:12;;;;;;;1.53;1.43;;;-3.00;99.90;;;;;;5020384;28;20197;-76
2021/12/01 08:05:39;;;;;;;0.93;0.93;;;-3.20;99.90;;;;;;5017451;28;20169;-72
2021/12/01 08:08:21;;;;;;;1.20;1.10;;;-2.80;99.90;;;;;;5033496;28;20191;-75
2021/12/01 08:10:52;;;;;;;1.37;1.27;;;-2.40;99.90;;;;;;5036948;28;20502;-72
2021/12/01 08:13:21;;;;;;;1.03;1.03;;;-2.20;99.90;;;;;;5028156;28;20546;-74
2021/12/01 08:15:48;;;;;;;1.00;1.00;;;-2.30;99.90;;;;;;5036497;28;20177;-76
2021/12/01 08:18:14;;;;;;;0.70;0.70;;;-2.30;99.90;;;;;;5036569;28;20168;-74
2021/12/01 08:20:40;;;;;;;0.70;0.70;;;-2.50;99.90;;;;;;5036455;28;20299;-72
2021/12/01 08:23:07;;;;;;;1.27;0.80;;;-3.30;99.90;;;;;;5035675;28;20223;-79
2021/12/01 08:25:33;;;;;;;11.13;2.40;;;-3.30;99.90;;;;;;5035184;28;20176;-76
2021/12/01 08:28:01;;;;;;;0.80;0.80;;;-3.10;99.90;;;;;;5036009;28;20177;-74
2021/12/01 08:30:27;;;;;;;0.90;0.90;;;-3.80;99.90;;;;;;5036792;28;20196;-74
2021/12/01 08:32:54;;;;;;;0.93;0.93;;;-3.40;99.90;;;;;;5036700;28;20220;-72
2021/12/01 08:35:21;;;;;;;0.73;0.73;;;-3.10;99.90;;;;;;5037337;28;20197;-83
2021/12/01 08:37:47;;;;;;;0.77;0.77;;;-3.40;99.90;;;;;;5037127;28;20522;-75
2021/12/01 08:40:15;;;;;;;0.90;0.90;;;-3.20;99.90;;;;;;5035132;28;20223;-76
2021/12/01 08:42:42;;;;;;;1.40;1.30;;;-2.40;99.90;;;;;;5023419;28;20196;-78
2021/12/01 08:45:09;;;;;;;1.97;1.97;;;-3.50;99.90;;;;;;5029726;28;20168;-74
2021/12/01 08:47:37;;;;;;;1.07;1.00;;;-1.40;99.90;;;;;;5026205;28;20188;-78
2021/12/01 08:50:04;;;;;;;1.20;1.20;;;-3.60;99.90;;;;;;5036893;28;20172;-76
2021/12/01 08:52:32;;;;;;;2.63;1.50;;;-3.40;99.90;;;;;;5031636;28;20216;-73
2021/12/01 08:54:58;;;;;;;1.43;1.03;;;-3.80;99.90;;;;;;5016563;28;20806;-73
2021/12/01 08:57:33;;;;;;;1.37;1.37;;;-4.10;99.90;;;;;;5031707;28;20326;-76
2021/12/01 08:59:59;;;;;;;1.37;1.37;;;-3.30;99.90;;;;;;5036088;28;20561;-82
2021/12/01 09:02:40;;;;;;;17.13;3.00;;;-3.00;99.90;;;;;;5034592;28;20185;-75
2021/12/01 09:05:12;;;;;;;1.50;1.40;;;-3.20;99.90;;;;;;5030486;28;20611;-72
2021/12/01 09:07:42;;;;;;;1.97;1.87;;;-3.90;99.90;;;;;;5035851;28;20618;-79
2021/12/01 09:10:09;;;;;;;1.93;1.60;;;-3.10;99.90;;;;;;5036145;28;20259;-73
2021/12/01 09:12:37;;;;;;;1.80;1.73;;;-3.20;99.90;;;;;;5032106;28;20220;-74
2021/12/01 09:15:05;;;;;;;2.43;2.27;;;-2.90;99.90;;;;;;5033302;28;20200;-79
2021/12/01 09:17:41;;;;;;;2.73;2.53;;;-3.00;99.90;;;;;;5035332;28;20199;-74
2021/12/01 09:20:09;;;;;;;2.50;2.40;;;-3.10;99.90;;;;;;5020743;28;20596;-76
2021/12/01 09:22:39;;;;;;;2.93;2.73;;;-2.60;99.90;;;;;;5025230;28;20184;-72
2021/12/01 09:25:07;;;;;;;2.20;2.10;;;-3.10;99.90;;;;;;5035084;28;20203;-74
2021/12/01 09:27:35;;;;;;;2.20;2.10;;;-3.50;99.90;;;;;;5035607;28;20572;-79
2021/12/01 09:30:03;;;;;;;2.27;2.17;;;-3.50;99.90;;;;;;5033989;28;20214;-77
2021/12/01 09:32:28;;;;;;;2.67;2.47;;;-3.20;99.90;;;;;;5033316;28;20204;-81
2021/12/01 09:34:55;;;;;;;4.00;3.30;;;-3.40;99.90;;;;;;5035490;28;20482;-76
2021/12/01 09:37:20;;;;;;;2.90;2.70;;;-3.70;99.90;;;;;;5031251;28;20173;-78
2021/12/01 09:39:47;;;;;;;3.07;2.63;;;-3.50;99.90;;;;;;5035121;28;20211;-77
2021/12/01 09:42:13;;;;;;;2.97;2.77;;;-4.50;99.90;;;;;;5034618;28;20184;-74
2021/12/01 09:44:40;;;;;;;3.57;2.63;;;-2.70;99.90;;;;;;5034490;28;20186;-78
2021/12/01 09:47:06;;;;;;;3.13;2.57;;;-3.20;99.90;;;;;;5034833;28;20275;-73
2021/12/01 09:49:33;;;;;;;2.80;2.60;;;-3.50;99.90;;;;;;5035118;28;20596;-74
2021/12/01 09:51:59;;;;;;;2.33;2.20;;;-3.20;99.90;;;;;;5034390;28;20246;-78
2021/12/01 09:54:25;;;;;;;1.93;1.83;;;-3.40;99.90;;;;;;5037444;28;20176;-74
2021/12/01 09:56:51;;;;;;;4.23;1.93;;;-2.60;99.90;;;;;;5042810;28;20540;-79
2021/12/01 09:59:18;;;;;;;3.30;2.00;;;-2.80;99.90;;;;;;5042376;28;20596;-76
2021/12/01 10:01:45;;;;;;;8.77;3.43;;;-3.10;99.90;;;;;;5042114;28;20176;-77
2021/12/01 10:04:10;;;;;;;3.80;1.40;;;-3.20;99.90;;;;;;5035293;28;20193;-79
2021/12/01 10:06:37;;;;;;;2.67;1.67;;;-3.60;99.90;;;;;;5034165;28;20176;-74
2021/12/01 10:09:07;;;;;;;7.70;1.60;;;-3.30;99.90;;;;;;5039940;28;20192;-73
2021/12/01 10:11:41;;;;;;;4.00;1.67;;;-2.60;99.90;;;;;;5041036;28;20183;-73
2021/12/01 10:14:15;;;;;;;3.50;1.30;;;-2.70;99.90;;;;;;5041114;28;20200;-74
2021/12/01 10:16:45;;;;;;;6.93;1.40;;;-2.20;99.90;;;;;;5034811;28;20238;-74
2021/12/01 10:19:13;;;;;;;3.67;1.60;;;-3.40;99.90;;;;;;5034231;28;20242;-74
2021/12/01 10:21:41;;;;;;;3.63;1.50;;;-3.80;99.90;;;;;;5030380;28;20184;-75
2021/12/01 10:24:21;;;;;;;2.80;1.70;;;-3.20;99.90;;;;;;5040332;28;20181;-75
2021/12/01 10:26:56;;;;;;;4.63;2.03;;;-2.90;99.90;;;;;;5039772;28;20190;-74
2021/12/01 10:29:42;;;;;;;3.77;1.30;;;-2.80;99.90;;;;;;5041886;28;20172;-75
2021/12/01 10:32:08;;;;;;;2.37;2.10;;;-2.60;99.90;;;;;;5036995;28;20204;-80
2021/12/01 10:34:52;;;;;;;3.93;1.30;;;-2.50;99.90;;;;;;5041274;28;20180;-76
2021/12/01 10:37:31;;;;;;;4.80;1.80;;;-2.60;99.90;;;;;;5040445;28;20604;-80
2021/12/01 10:40:14;;;;;;;4.43;1.23;;;-2.10;99.90;;;;;;5037745;28;20448;-76
2021/12/01 10:42:57;;;;;;;7.73;2.03;;;-2.30;99.90;;;;;;5037930;28;20180;-76
2021/12/01 10:45:27;;;;;;;8.70;2.37;;;-2.50;99.90;;;;;;5042472;28;20173;-78
2021/12/01 10:47:53;;;;;;;3.10;1.60;;;-3.40;99.90;;;;;;5040643;28;20480;-76
2021/12/01 10:50:23;;;;;;;3.83;2.10;;;-2.60;99.90;;;;;;5041907;28;20183;-75
2021/12/01 10:52:51;;;;;;;5.03;2.03;;;-2.40;99.90;;;;;;5041930;28;20192;-80
2021/12/01 10:55:23;;;;;;;7.63;1.93;;;-3.70;99.90;;;;;;5041595;28;20161;-77
2021/12/01 10:57:55;;;;;;;9.03;2.33;;;-3.00;99.90;;;;;;5041013;28;20172;-76
2021/12/01 11:00:41;;;;;;;4.63;1.97;;;-3.90;99.90;;;;;;5040987;28;20172;-76
2021/12/01 11:03:12;;;;;;;12.07;2.17;;;-3.30;99.90;;;;;;5032906;28;20176;-78
2021/12/01 11:05:49;;;;;;;8.30;1.50;;;-3.30;99.90;;;;;;5040185;28;20153;-76
2021/12/01 11:08:16;;;;;;;4.93;2.13;;;-3.10;99.90;;;;;;5034773;28;20177;-83
2021/12/01 11:10:46;;;;;;;2.40;1.33;;;-2.80;99.90;;;;;;5039429;28;20173;-77
2021/12/01 11:13:13;;;;;;;3.70;1.20;;;-3.20;99.90;;;;;;5037633;28;20280;-78
2021/12/01 11:15:44;;;;;;;4.80;1.60;;;-2.60;99.90;;;;;;5037366;28;20175;-78
2021/12/01 11:18:35;;;;;;;3.87;1.00;;;-2.60;99.90;;;;;;5039926;28;20260;-84
2021/12/01 11:21:18;;;;;;;5.30;1.50;;;-2.90;99.90;;;;;;5025525;28;20659;-76
2021/12/01 11:23:48;;;;;;;4.60;1.53;;;-3.20;99.90;;;;;;5035089;28;20179;-69
2021/12/01 11:26:17;;;;;;;3.60;1.40;;;-1.20;99.90;;;;;;5038070;28;20180;-76
2021/12/01 11:28:55;;;;;;;4.43;1.10;;;-4.40;99.90;;;;;;5037666;28;20179;-75
2021/12/01 11:31:25;;;;;;;3.33;1.23;;;-4.30;99.90;;;;;;5038041;28;20165;-78
2021/12/01 11:33:56;;;;;;;1.40;1.30;;;-3.00;99.90;;;;;;5028061;28;20539;-75
2021/12/01 11:36:26;;;;;;;2.43;0.90;;;-3.40;99.90;;;;;;5036124;28;20201;-73
2021/12/01 11:38:54;;;;;;;2.47;1.20;;;-3.40;99.90;;;;;;5038570;28;20654;-81
2021/12/01 11:41:20;;;;;;;4.47;1.47;;;-2.30;99.90;;;;;;5036831;28;20183;-77
2021/12/01 11:43:47;;;;;;;2.77;1.30;;;-0.70;99.90;;;;;;5037111;28;20165;-79
2021/12/01 11:46:14;;;;;;;12.30;1.20;;;-2.60;99.90;;;;;;5036198;28;20272;-76
2021/12/01 11:48:55;;;;;;;2.77;1.30;;;-2.10;99.90;;;;;;5037516;28;20189;-76
2021/12/01 11:51:36;;;;;;;2.67;1.40;;;-1.30;99.90;;;;;;5036216;28;20169;-77
2021/12/01 11:54:19;;;;;;;7.00;1.47;;;-2.80;99.90;;;;;;5037102;28;20200;-78
2021/12/01 11:56:53;;;;;;;2.83;1.67;;;-2.80;99.90;;;;;;5035950;28;20238;-78
2021/12/01 11:59:30;;;;;;;2.73;1.20;;;-2.60;99.90;;;;;;5036819;28;20171;-77
2021/12/01 12:01:56;;;;;;;4.03;1.50;;;-2.50;99.90;;;;;;5035480;28;20231;-76
2021/12/01 12:04:28;;;;;;;2.93;1.23;;;-2.50;99.90;;;;;;5017972;28;20158;-78
2021/12/01 12:07:03;;;;;;;8.00;1.67;;;-3.10;99.90;;;;;;5017503;28;20161;-77
2021/12/01 12:09:29;;;;;;;1.10;1.00;;;-2.40;99.90;;;;;;5016369;28;20177;-77
2021/12/01 12:11:59;;;;;;;3.30;1.20;;;-3.60;99.90;;;;;;5017456;28;20166;-79
2021/12/01 12:14:32;;;;;;;4.53;1.40;;;-3.50;99.90;;;;;;5016780;28;20163;-78
2021/12/01 12:17:20;;;;;;;2.10;1.33;;;-3.60;99.90;;;;;;5017504;28;20162;-79
2021/12/01 12:20:15;;;;;;;4.53;1.03;;;-3.70;99.90;;;;;;5016351;28;20166;-77
2021/12/01 12:22:46;;;;;;;2.67;0.93;;;-4.20;99.90;;;;;;5017762;28;20213;-77
2021/12/01 12:25:35;;;;;;;7.13;1.23;;;-3.80;99.90;;;;;;5017234;28;20188;-77
2021/12/01 12:28:19;;;;;;;2.53;1.20;;;-2.70;99.90;;;;;;5017036;28;20157;-77
2021/12/01 12:30:45;;;;;;;2.63;0.97;;;-2.50;99.90;;;;;;5017257;28;20208;-77
2021/12/01 12:33:32;;;;;;;4.97;1.27;;;-1.90;99.90;;;;;;5017570;28;20222;-77
2021/12/01 12:36:05;;;;;;;3.77;1.53;;;-2.10;99.90;;;;;;5017361;28;20525;-76
2021/12/01 12:38:31;;;;;;;5.00;1.43;;;-2.70;99.90;;;;;;5015912;28;20260;-78
2021/12/01 12:41:10;;;;;;;2.53;0.73;;;-3.10;99.90;;;;;;5016226;28;20228;-78
2021/12/01 12:43:39;;;;;;;1.33;0.80;;;-3.00;99.90;;;;;;5015856;28;20597;-78
2021/12/01 12:46:17;;;;;;;0.97;0.83;;;-2.80;99.90;;;;;;5015702;28;20180;-77
2021/12/01 12:48:49;;;;;;;4.50;1.00;;;-1.40;99.90;;;;;;5016626;28;20185;-76
2021/12/01 12:51:19;;;;;;;1.93;0.70;;;-1.90;99.90;;;;;;5016898;28;20173;-76
2021/12/01 12:54:06;;;;;;;5.33;1.47;;;-1.30;99.90;;;;;;5015200;28;20251;-75
2021/12/01 12:56:33;;;;;;;4.50;0.83;;;-1.20;99.90;;;;;;5038945;28;20588;-75
2021/12/01 12:59:33;;;;;;;6.70;2.47;;;-1.60;99.90;;;;;;5036214;28;20168;-74
2021/12/01 13:02:02;;;;;;;6.73;1.20;;;-1.80;99.90;;;;;;5032461;28;20619;-73